Time;durP1;ratioP1;P1;durP2;ratioP2;P2;SDS_P1;SDS_P2;PMS_P1;PMS_P2;Temp;Humidity;BMP_temperature;BMP_pressure;BME280_temperature;BME280_humidity;BME280_pressure;Samples;Min_cycle;Max_cycle;Signal;HPM_P1;HPM_P2
2021/04/05 00:00:53;;;;;;;3.40;2.10;;;8.50;79.30;;;;;;4959502;28;20535;-68
2021/04/05 00:03:19;;;;;;;2.00;1.80;;;8.60;79.70;;;;;;4966846;28;20187;-68
2021/04/05 00:05:46;;;;;;;2.53;1.70;;;8.60;79.90;;;;;;4959020;28;20208;-68
2021/04/05 00:08:13;;;;;;;1.77;1.63;;;8.60;79.90;;;;;;4954999;28;20226;-68
2021/04/05 00:10:44;;;;;;;5.50;2.60;;;8.60;80.50;;;;;;4957848;28;20765;-69
2021/04/05 00:13:15;;;;;;;4.07;2.60;;;8.60;80.80;;;;;;4951398;29;20286;-69
2021/04/05 00:15:43;;;;;;;3.67;2.40;;;8.60;81.00;;;;;;4963289;28;20210;-70
2021/04/05 00:18:10;;;;;;;4.10;2.13;;;8.60;81.40;;;;;;4960293;28;20196;-69
2021/04/05 00:20:39;;;;;;;2.63;1.70;;;8.60;81.60;;;;;;4957519;28;20209;-69
2021/04/05 00:23:06;;;;;;;3.60;1.70;;;8.60;82.60;;;;;;4954174;28;20314;-67
2021/04/05 00:25:33;;;;;;;3.33;2.13;;;8.70;82.10;;;;;;4965216;28;20203;-68
2021/04/05 00:28:01;;;;;;;2.67;2.23;;;8.70;82.20;;;;;;4956342;28;20266;-70
2021/04/05 00:30:31;;;;;;;3.00;2.00;;;8.70;82.50;;;;;;4964590;28;20189;-68
2021/04/05 00:32:59;;;;;;;3.27;2.00;;;8.70;82.80;;;;;;4960122;28;20278;-68
2021/04/05 00:35:28;;;;;;;3.80;1.80;;;8.70;82.90;;;;;;4947188;28;20201;-69
2021/04/05 00:37:56;;;;;;;2.57;2.20;;;8.70;83.30;;;;;;4951115;29;20190;-69
2021/04/05 00:40:25;;;;;;;2.23;2.03;;;8.70;83.30;;;;;;4946200;29;20202;-69
2021/04/05 00:42:52;;;;;;;2.23;1.83;;;8.70;83.50;;;;;;4953591;28;20730;-69
2021/04/05 00:45:19;;;;;;;4.33;2.20;;;8.70;84.00;;;;;;4950046;29;20245;-69
2021/04/05 00:47:47;;;;;;;2.53;2.03;;;8.60;84.70;;;;;;4949434;28;20207;-69
2021/04/05 00:50:17;;;;;;;4.07;2.10;;;8.60;85.10;;;;;;4949292;29;20210;-68
2021/04/05 00:52:45;;;;;;;3.27;2.10;;;8.60;85.50;;;;;;4947689;28;20504;-69
2021/04/05 00:55:13;;;;;;;2.13;1.90;;;8.50;86.20;;;;;;4953572;28;20245;-68
2021/04/05 00:57:40;;;;;;;2.90;1.97;;;8.50;86.50;;;;;;4948331;28;20254;-68
2021/04/05 01:00:10;;;;;;;2.43;2.03;;;8.50;87.00;;;;;;4948872;28;20651;-69
2021/04/05 01:02:36;;;;;;;2.00;1.80;;;8.50;87.70;;;;;;4950042;29;20574;-69
2021/04/05 01:05:04;;;;;;;2.43;2.00;;;8.40;87.90;;;;;;4944926;28;20213;-68
2021/04/05 01:07:32;;;;;;;3.87;1.77;;;8.50;88.10;;;;;;4949460;28;20226;-69
2021/04/05 01:09:58;;;;;;;2.53;1.57;;;8.40;88.10;;;;;;4948893;29;20207;-68
2021/04/05 01:12:25;;;;;;;1.93;1.73;;;8.40;88.40;;;;;;4958844;28;20464;-69
2021/04/05 01:14:52;;;;;;;3.83;2.90;;;8.40;89.00;;;;;;4969195;28;20256;-69
2021/04/05 01:17:18;;;;;;;5.87;3.10;;;8.40;89.60;;;;;;4961645;28;20197;-69
2021/04/05 01:19:45;;;;;;;5.63;2.77;;;8.30;90.00;;;;;;4963527;28;20392;-69
2021/04/05 01:22:13;;;;;;;4.60;2.87;;;8.20;90.40;;;;;;4957585;28;20197;-69
2021/04/05 01:24:39;;;;;;;4.37;3.00;;;8.20;90.80;;;;;;4967701;28;20699;-68
2021/04/05 01:27:07;;;;;;;3.07;2.50;;;8.10;91.30;;;;;;4959342;28;20201;-68
2021/04/05 01:29:35;;;;;;;3.10;2.37;;;8.10;91.60;;;;;;4949659;28;20221;-67
2021/04/05 01:32:02;;;;;;;4.63;2.53;;;8.10;91.70;;;;;;4966416;28;20721;-68
2021/04/05 01:34:28;;;;;;;3.63;2.03;;;8.00;91.80;;;;;;4964578;28;20196;-68
2021/04/05 01:36:59;;;;;;;3.63;2.30;;;8.10;92.10;;;;;;4960765;28;20296;-68
2021/04/05 01:39:26;;;;;;;3.57;2.33;;;8.10;92.10;;;;;;4955025;28;20190;-68
2021/04/05 01:41:53;;;;;;;4.77;2.57;;;8.10;92.40;;;;;;4965308;28;20204;-68
2021/04/05 01:44:20;;;;;;;3.50;2.47;;;8.10;92.50;;;;;;4966539;28;20216;-68
2021/04/05 01:46:47;;;;;;;2.83;2.17;;;8.10;93.00;;;;;;4965420;28;20203;-68
2021/04/05 01:49:14;;;;;;;3.17;2.30;;;8.10;92.80;;;;;;4956418;28;20217;-68
2021/04/05 01:51:40;;;;;;;2.97;2.37;;;8.00;93.10;;;;;;4961588;28;20231;-68
2021/04/05 01:54:07;;;;;;;5.57;2.40;;;8.00;93.60;;;;;;4948609;28;20201;-68
2021/04/05 01:56:35;;;;;;;3.47;1.60;;;8.00;93.90;;;;;;4954799;29;20276;-68
2021/04/05 01:59:02;;;;;;;1.77;1.50;;;8.00;93.90;;;;;;4961987;28;20279;-68
2021/04/05 02:01:30;;;;;;;2.97;1.80;;;8.00;93.90;;;;;;4956706;28;20208;-68
2021/04/05 02:03:58;;;;;;;6.17;1.70;;;8.00;94.00;;;;;;4957354;28;20530;-68
2021/04/05 02:06:29;;;;;;;2.33;1.70;;;8.10;94.00;;;;;;4955181;28;20618;-68
2021/04/05 02:08:56;;;;;;;2.97;1.80;;;8.10;93.90;;;;;;4958344;28;20257;-68
2021/04/05 02:11:26;;;;;;;3.40;1.90;;;8.10;94.00;;;;;;4955938;28;20205;-68
2021/04/05 02:13:56;;;;;;;6.90;3.47;;;8.10;94.10;;;;;;4953781;28;20206;-68
2021/04/05 02:16:24;;;;;;;3.53;1.97;;;8.00;94.50;;;;;;4955402;28;20257;-67
2021/04/05 02:18:52;;;;;;;2.10;1.80;;;8.00;94.40;;;;;;4955897;28;20518;-68
2021/04/05 02:21:21;;;;;;;3.20;1.77;;;8.00;94.70;;;;;;4954378;28;20741;-68
2021/04/05 02:23:50;;;;;;;2.67;1.70;;;7.90;94.70;;;;;;4959361;28;20657;-67
2021/04/05 02:26:17;;;;;;;2.47;1.73;;;7.90;94.80;;;;;;4973097;28;20700;-67
2021/04/05 02:28:47;;;;;;;3.40;2.10;;;8.00;94.90;;;;;;4945717;28;20210;-69
2021/04/05 02:31:16;;;;;;;2.03;1.80;;;8.00;95.00;;;;;;4962074;28;20268;-67
2021/04/05 02:33:46;;;;;;;2.00;1.80;;;8.00;95.30;;;;;;4971650;28;20237;-67
2021/04/05 02:36:15;;;;;;;3.27;1.67;;;8.00;95.20;;;;;;4970163;28;20196;-68
2021/04/05 02:38:45;;;;;;;2.40;1.70;;;8.00;95.30;;;;;;4971536;28;20535;-70
2021/04/05 02:41:13;;;;;;;4.00;1.80;;;8.00;95.60;;;;;;4970018;28;20262;-68
2021/04/05 02:43:41;;;;;;;4.47;2.67;;;8.00;95.70;;;;;;4971716;28;20223;-68
2021/04/05 02:46:14;;;;;;;1.90;1.60;;;8.00;96.20;;;;;;4967840;28;20198;-68
2021/04/05 02:48:45;;;;;;;4.07;2.00;;;8.00;96.10;;;;;;4967900;28;20838;-68
2021/04/05 02:51:12;;;;;;;3.43;1.80;;;8.00;96.30;;;;;;4966494;28;20193;-67
2021/04/05 02:53:43;;;;;;;2.10;1.43;;;8.00;96.30;;;;;;4965041;28;20216;-67
2021/04/05 02:56:11;;;;;;;2.10;1.60;;;8.00;96.30;;;;;;4955573;28;20688;-68
2021/04/05 02:58:41;;;;;;;3.47;2.00;;;8.00;96.30;;;;;;4968725;28;20192;-67
2021/04/05 03:01:08;;;;;;;5.33;2.20;;;8.00;96.70;;;;;;4951505;28;20213;-67
2021/04/05 03:03:36;;;;;;;3.83;2.20;;;8.00;97.10;;;;;;4964899;28;20201;-68
2021/04/05 03:06:05;;;;;;;2.03;1.90;;;8.00;97.10;;;;;;4955005;28;20205;-68
2021/04/05 03:08:32;;;;;;;3.90;2.20;;;7.90;97.10;;;;;;4962987;28;20724;-68
2021/04/05 03:10:59;;;;;;;2.30;2.10;;;7.90;97.50;;;;;;4955429;28;20843;-68
2021/04/05 03:13:26;;;;;;;3.30;2.40;;;7.90;97.60;;;;;;4958073;28;20215;-68
2021/04/05 03:15:53;;;;;;;2.93;2.20;;;7.90;97.80;;;;;;4948178;28;20224;-68
2021/04/05 03:18:22;;;;;;;5.57;2.87;;;7.90;98.20;;;;;;4946651;29;20554;-68
2021/04/05 03:20:49;;;;;;;3.83;2.13;;;7.90;98.10;;;;;;4951378;28;20324;-68
2021/04/05 03:23:17;;;;;;;4.70;2.10;;;7.90;98.10;;;;;;4957454;28;20263;-68
2021/04/05 03:25:44;;;;;;;3.00;2.57;;;7.90;98.30;;;;;;4955072;28;20209;-68
2021/04/05 03:28:11;;;;;;;3.73;1.90;;;7.90;98.40;;;;;;4943441;28;20707;-68
2021/04/05 03:30:44;;;;;;;2.97;2.00;;;7.80;98.50;;;;;;4957044;28;20197;-68
2021/04/05 03:33:14;;;;;;;3.20;2.10;;;7.90;98.60;;;;;;4969737;28;20677;-68
2021/04/05 03:35:44;;;;;;;4.53;2.07;;;7.90;98.80;;;;;;4968477;28;20300;-67
2021/04/05 03:38:11;;;;;;;5.00;2.50;;;7.90;98.90;;;;;;4965255;28;20673;-68
2021/04/05 03:40:41;;;;;;;3.77;2.33;;;7.90;99.10;;;;;;4970713;28;20198;-68
2021/04/05 03:43:14;;;;;;;2.23;2.03;;;7.90;99.10;;;;;;4964203;28;20204;-68
2021/04/05 03:45:44;;;;;;;4.43;1.97;;;7.90;99.20;;;;;;4957063;28;20208;-68
2021/04/05 03:48:17;;;;;;;2.50;2.30;;;7.90;99.20;;;;;;4961094;28;20212;-68
2021/04/05 03:50:50;;;;;;;3.13;2.33;;;7.90;99.40;;;;;;4959440;28;20280;-68
2021/04/05 03:53:25;;;;;;;2.53;2.33;;;7.80;99.60;;;;;;4956341;28;20532;-68
2021/04/05 03:55:58;;;;;;;3.50;2.53;;;7.80;99.80;;;;;;4956294;28;20670;-68
2021/04/05 03:58:29;;;;;;;2.47;2.03;;;7.80;99.90;;;;;;4958082;28;20193;-68
2021/04/05 04:01:01;;;;;;;3.60;2.30;;;7.80;99.90;;;;;;4956316;28;20207;-68
2021/04/05 04:03:32;;;;;;;3.17;2.47;;;7.80;99.90;;;;;;4957393;28;20208;-68
2021/04/05 04:06:03;;;;;;;3.47;2.47;;;7.80;99.90;;;;;;4955188;28;20273;-67
2021/04/05 04:08:37;;;;;;;4.50;2.37;;;7.80;99.90;;;;;;4960609;28;20219;-68
2021/04/05 04:11:08;;;;;;;4.43;2.53;;;7.80;99.90;;;;;;4950017;28;20201;-68
2021/04/05 04:13:36;;;;;;;6.67;3.43;;;7.80;99.90;;;;;;4949471;28;20491;-68
2021/04/05 04:16:05;;;;;;;6.27;3.20;;;7.80;99.90;;;;;;4954664;28;20209;-68
2021/04/05 04:18:32;;;;;;;3.60;2.90;;;7.70;99.90;;;;;;4947507;28;20667;-68
2021/04/05 04:20:59;;;;;;;6.40;3.20;;;7.70;99.90;;;;;;4950166;29;20605;-68
2021/04/05 04:23:27;;;;;;;4.30;2.77;;;7.70;99.90;;;;;;4949195;28;20213;-68
2021/04/05 04:25:54;;;;;;;7.73;3.03;;;7.70;99.90;;;;;;4952196;28;20213;-68
2021/04/05 04:28:22;;;;;;;7.13;3.67;;;7.70;99.90;;;;;;4943625;28;20670;-68
2021/04/05 04:30:54;;;;;;;6.70;3.27;;;7.70;99.90;;;;;;4949066;28;20193;-68
2021/04/05 04:33:22;;;;;;;9.30;3.60;;;7.70;99.90;;;;;;4964864;28;20209;-68
2021/04/05 04:35:48;;;;;;;5.43;3.40;;;7.70;99.90;;;;;;4963478;28;20197;-68
2021/04/05 04:38:15;;;;;;;6.97;3.43;;;7.70;99.90;;;;;;4966086;28;20196;-68
2021/04/05 04:40:42;;;;;;;4.90;2.93;;;7.70;99.90;;;;;;4964449;28;20248;-67
2021/04/05 04:43:09;;;;;;;4.17;2.60;;;7.70;99.90;;;;;;4965605;28;20732;-67
2021/04/05 04:45:37;;;;;;;9.20;3.97;;;7.70;99.90;;;;;;4947537;28;20269;-68
2021/04/05 04:48:04;;;;;;;10.27;4.03;;;7.80;99.90;;;;;;4955225;28;20222;-69
2021/04/05 04:50:31;;;;;;;6.03;3.60;;;7.80;99.90;;;;;;4960237;28;20197;-68
2021/04/05 04:52:58;;;;;;;6.03;3.20;;;7.70;99.90;;;;;;4958392;28;20209;-68
2021/04/05 04:55:26;;;;;;;6.37;3.30;;;7.70;99.90;;;;;;4950414;29;20681;-68
2021/04/05 04:57:55;;;;;;;5.53;3.77;;;7.80;99.90;;;;;;4957435;28;20680;-68
2021/04/05 05:00:23;;;;;;;3.90;3.00;;;7.80;99.90;;;;;;4952216;28;20247;-68
2021/04/05 05:02:52;;;;;;;8.40;3.60;;;7.80;99.90;;;;;;4958717;28;20304;-69
2021/04/05 05:05:22;;;;;;;5.33;3.70;;;7.70;99.90;;;;;;4950400;29;20400;-68
2021/04/05 05:07:49;;;;;;;8.43;3.90;;;7.70;99.90;;;;;;4958697;28;20606;-68
2021/04/05 05:10:17;;;;;;;4.73;3.33;;;7.70;99.90;;;;;;4956791;28;20912;-69
2021/04/05 05:12:45;;;;;;;6.63;3.63;;;7.60;99.90;;;;;;4957173;28;20268;-68
2021/04/05 05:15:13;;;;;;;8.70;3.87;;;7.60;99.90;;;;;;4952023;28;20190;-67
2021/04/05 05:17:41;;;;;;;4.77;3.30;;;7.60;99.90;;;;;;4947839;28;20212;-67
2021/04/05 05:20:11;;;;;;;5.83;3.30;;;7.60;99.90;;;;;;4950930;28;20198;-69
2021/04/05 05:22:42;;;;;;;8.23;3.83;;;7.70;99.90;;;;;;4960732;28;20693;-67
2021/04/05 05:25:11;;;;;;;5.63;3.17;;;7.70;99.90;;;;;;4962126;28;20553;-68
2021/04/05 05:27:42;;;;;;;7.70;3.60;;;7.70;99.90;;;;;;4952363;28;20218;-68
2021/04/05 05:30:20;;;;;;;5.37;3.60;;;7.60;99.90;;;;;;4957297;28;20194;-68
2021/04/05 05:32:47;;;;;;;5.80;3.60;;;7.60;99.90;;;;;;4962362;28;20290;-68
2021/04/05 05:35:16;;;;;;;5.53;3.50;;;7.60;99.90;;;;;;4951485;29;20201;-68
2021/04/05 05:37:43;;;;;;;4.57;3.57;;;7.60;99.90;;;;;;4944524;29;20294;-68
2021/04/05 05:40:18;;;;;;;7.83;4.10;;;7.60;99.90;;;;;;4956562;28;20199;-69
2021/04/05 05:42:57;;;;;;;6.93;4.30;;;7.60;99.90;;;;;;4965782;28;20214;-69
2021/04/05 05:45:29;;;;;;;9.20;4.10;;;7.50;99.90;;;;;;4958661;28;20200;-69
2021/04/05 05:48:12;;;;;;;14.80;4.60;;;7.50;99.90;;;;;;4964131;28;20209;-69
2021/04/05 05:50:53;;;;;;;7.03;4.07;;;7.50;99.90;;;;;;4966541;28;20196;-69
2021/04/05 05:53:28;;;;;;;7.37;3.90;;;7.50;99.90;;;;;;4949240;28;20259;-69
2021/04/05 05:56:07;;;;;;;8.57;4.87;;;7.40;99.90;;;;;;4961477;28;20662;-68
2021/04/05 05:58:41;;;;;;;9.63;4.43;;;7.40;99.90;;;;;;4954546;28;20239;-69
2021/04/05 06:01:14;;;;;;;7.43;4.37;;;7.30;99.90;;;;;;4950278;28;20228;-70
2021/04/05 06:03:54;;;;;;;6.63;3.77;;;7.30;99.90;;;;;;4957716;28;20212;-69
2021/04/05 06:06:26;;;;;;;10.77;5.07;;;7.30;99.90;;;;;;4957443;28;20204;-69
2021/04/05 06:09:03;;;;;;;8.47;4.30;;;7.30;99.90;;;;;;4954552;28;20206;-69
2021/04/05 06:11:49;;;;;;;7.80;4.20;;;7.30;99.90;;;;;;4957295;28;20205;-69
2021/04/05 06:14:32;;;;;;;10.43;4.33;;;7.50;99.90;;;;;;4943931;28;20279;-69
2021/04/05 06:17:06;;;;;;;9.87;4.70;;;7.50;99.90;;;;;;4957447;28;20366;-69
2021/04/05 06:19:41;;;;;;;12.23;5.17;;;7.50;99.90;;;;;;4955997;28;20295;-70
2021/04/05 06:22:23;;;;;;;9.17;4.47;;;7.60;99.90;;;;;;4953573;28;20216;-69
2021/04/05 06:25:05;;;;;;;8.20;4.70;;;7.60;99.90;;;;;;4955909;28;20201;-69
2021/04/05 06:27:42;;;;;;;11.97;5.50;;;7.70;99.90;;;;;;4939638;28;20558;-69
2021/04/05 06:30:18;;;;;;;11.17;5.73;;;7.70;99.90;;;;;;4948475;28;20235;-69
2021/04/05 06:32:55;;;;;;;13.47;5.77;;;7.70;99.90;;;;;;4965970;28;20244;-69
2021/04/05 06:36:01;;;;;;;22.77;6.30;;;7.70;99.90;;;;;;4949255;28;20276;-69
2021/04/05 06:38:32;;;;;;;11.40;5.63;;;7.70;99.90;;;;;;4962840;28;20226;-69
2021/04/05 06:41:36;;;;;;;8.73;5.53;;;7.70;99.90;;;;;;4968988;28;20546;-69
2021/04/05 06:44:48;;;;;;;9.83;4.90;;;7.70;99.90;;;;;;4901802;29;20576;-69
2021/04/05 06:47:45;;;;;;;6.93;4.80;;;7.80;99.90;;;;;;4826370;29;20213;-69
2021/04/05 06:50:26;;;;;;;11.40;5.70;;;7.90;99.90;;;;;;4830418;29;20268;-69
2021/04/05 06:53:29;;;;;;;6.90;4.60;;;8.00;99.90;;;;;;4823910;29;20217;-69
2021/04/05 06:55:57;;;;;;;12.50;6.10;;;8.00;99.90;;;;;;4826812;29;20229;-69
2021/04/05 06:58:42;;;;;;;13.43;6.00;;;8.10;99.90;;;;;;4829161;29;20288;-69
2021/04/05 07:01:29;;;;;;;13.97;5.23;;;8.00;99.90;;;;;;4810628;29;20216;-69
2021/04/05 07:04:30;;;;;;;12.13;6.50;;;8.10;99.90;;;;;;4824985;29;20218;-69
2021/04/05 07:07:08;;;;;;;12.37;5.90;;;8.10;99.90;;;;;;4825914;29;20218;-69
2021/04/05 07:09:44;;;;;;;11.80;5.70;;;8.00;99.90;;;;;;4825617;29;20695;-69
2021/04/05 07:12:36;;;;;;;13.47;6.03;;;8.00;99.90;;;;;;4826180;29;20228;-69
2021/04/05 07:15:16;;;;;;;10.30;5.83;;;8.00;99.90;;;;;;4809995;29;20225;-69
2021/04/05 07:17:56;;;;;;;10.43;6.00;;;8.00;99.90;;;;;;4817765;29;20212;-69
2021/04/05 07:20:28;;;;;;;9.40;5.47;;;8.00;99.90;;;;;;4835690;29;20207;-70
2021/04/05 07:23:10;;;;;;;15.47;6.33;;;8.00;99.90;;;;;;4915704;28;20568;-70
2021/04/05 07:25:45;;;;;;;11.77;6.20;;;8.00;99.90;;;;;;4940444;28;20560;-69
2021/04/05 07:28:20;;;;;;;11.63;5.87;;;8.00;99.90;;;;;;4942692;28;20200;-70
2021/04/05 07:30:54;;;;;;;10.03;5.50;;;8.10;99.90;;;;;;4934549;29;20784;-69
2021/04/05 07:33:36;;;;;;;8.60;5.73;;;8.10;99.90;;;;;;4954324;28;20575;-70
2021/04/05 07:36:10;;;;;;;11.60;6.20;;;8.20;99.90;;;;;;4947504;28;20203;-70
2021/04/05 07:38:44;;;;;;;11.27;6.43;;;8.20;99.90;;;;;;4942605;28;20338;-70
2021/04/05 07:41:19;;;;;;;9.77;6.17;;;8.30;99.90;;;;;;4944175;28;20295;-70
2021/04/05 07:44:00;;;;;;;10.80;5.20;;;8.40;99.90;;;;;;4951595;28;20336;-70
2021/04/05 07:46:36;;;;;;;7.87;4.63;;;8.50;99.90;;;;;;4951780;28;20201;-71
2021/04/05 07:49:13;;;;;;;10.87;5.33;;;8.80;99.90;;;;;;4936830;28;20220;-69
2021/04/05 07:51:54;;;;;;;10.87;6.03;;;8.90;99.90;;;;;;4952168;28;20606;-68
2021/04/05 07:54:24;;;;;;;7.90;4.97;;;8.90;99.90;;;;;;4946308;28;20562;-69
2021/04/05 07:57:05;;;;;;;7.97;5.37;;;8.90;99.90;;;;;;4953740;28;20207;-69
2021/04/05 07:59:47;;;;;;;9.87;5.57;;;8.90;99.90;;;;;;4958916;28;20551;-69
2021/04/05 08:02:42;;;;;;;8.27;5.37;;;8.90;99.90;;;;;;4948832;29;20725;-68
2021/04/05 08:05:26;;;;;;;12.30;6.10;;;8.90;99.90;;;;;;4954791;28;20195;-71
2021/04/05 08:08:14;;;;;;;10.27;5.53;;;8.90;99.90;;;;;;4949604;29;20209;-69
2021/04/05 08:11:02;;;;;;;9.30;5.43;;;8.90;99.90;;;;;;4953634;28;20289;-70
2021/04/05 08:13:40;;;;;;;9.93;5.80;;;8.90;99.90;;;;;;4954089;28;20196;-71
2021/04/05 08:16:15;;;;;;;11.83;5.57;;;8.90;99.90;;;;;;4952471;28;20231;-70
2021/04/05 08:18:51;;;;;;;7.63;4.87;;;8.90;99.90;;;;;;4948606;28;20197;-69
2021/04/05 08:21:22;;;;;;;8.03;5.40;;;8.90;99.90;;;;;;4944124;29;20550;-68
2021/04/05 08:24:13;;;;;;;9.20;6.40;;;9.00;99.90;;;;;;4945916;29;20258;-68
2021/04/05 08:26:47;;;;;;;8.13;5.90;;;9.00;99.90;;;;;;4948088;28;20217;-67
2021/04/05 08:29:21;;;;;;;10.80;5.13;;;9.00;99.90;;;;;;4940756;28;20304;-67
2021/04/05 08:32:04;;;;;;;8.30;5.03;;;8.90;99.90;;;;;;4967029;28;20332;-67
2021/04/05 08:34:47;;;;;;;7.93;5.50;;;8.90;99.90;;;;;;4970789;28;20199;-67
2021/04/05 08:37:21;;;;;;;12.57;6.10;;;8.80;99.90;;;;;;4946970;28;20225;-69
2021/04/05 08:39:59;;;;;;;11.40;6.10;;;8.90;99.90;;;;;;4965108;28;20208;-69
2021/04/05 08:42:31;;;;;;;10.17;6.03;;;8.90;99.90;;;;;;4949638;28;20205;-69
2021/04/05 08:45:07;;;;;;;10.37;5.87;;;8.80;99.90;;;;;;4964699;28;20681;-69
2021/04/05 08:47:38;;;;;;;10.60;6.27;;;8.80;99.90;;;;;;4967473;28;20240;-68
2021/04/05 08:50:09;;;;;;;9.07;5.70;;;8.80;99.90;;;;;;4961835;28;20237;-68
2021/04/05 08:52:45;;;;;;;11.37;5.87;;;8.80;99.90;;;;;;4959188;28;20223;-68
2021/04/05 08:55:15;;;;;;;13.10;6.10;;;8.90;99.90;;;;;;4959540;28;20204;-67
2021/04/05 08:57:48;;;;;;;7.40;5.23;;;9.00;99.90;;;;;;4957858;28;20980;-68
2021/04/05 09:00:16;;;;;;;7.70;5.63;;;9.00;99.90;;;;;;4963213;28;20196;-68
2021/04/05 09:02:48;;;;;;;11.07;6.03;;;9.10;99.90;;;;;;4960861;28;20199;-67
2021/04/05 09:05:18;;;;;;;9.90;5.70;;;9.10;99.90;;;;;;4954185;28;20267;-67
2021/04/05 09:08:02;;;;;;;10.17;6.50;;;9.10;99.90;;;;;;4956488;28;20248;-69
2021/04/05 09:10:31;;;;;;;10.30;5.53;;;9.10;99.90;;;;;;4957052;28;20212;-68
2021/04/05 09:12:59;;;;;;;10.13;6.17;;;9.10;99.90;;;;;;4955659;28;20618;-67
2021/04/05 09:16:05;;;;;;;10.40;5.97;;;9.30;99.90;;;;;;4951785;28;20661;-68
2021/04/05 09:19:08;;;;;;;8.93;5.27;;;9.40;99.90;;;;;;4955368;28;20678;-68
2021/04/05 09:21:56;;;;;;;7.73;4.93;;;9.50;99.90;;;;;;4957027;28;20246;-68
2021/04/05 09:24:48;;;;;;;7.30;5.10;;;9.60;99.90;;;;;;4956262;28;20233;-67
2021/04/05 09:27:32;;;;;;;6.77;4.50;;;9.60;99.90;;;;;;4947703;28;20205;-67
2021/04/05 09:30:31;;;;;;;6.57;4.47;;;9.60;99.90;;;;;;4937290;28;20210;-69
2021/04/05 09:33:32;;;;;;;7.13;5.40;;;9.60;99.90;;;;;;4967427;28;20246;-68
2021/04/05 09:36:28;;;;;;;10.53;6.00;;;9.50;99.90;;;;;;4949347;28;20198;-69
2021/04/05 09:39:21;;;;;;;10.37;6.03;;;9.50;99.90;;;;;;4965174;28;20200;-69
2021/04/05 09:42:13;;;;;;;7.90;5.27;;;9.40;99.90;;;;;;4960600;28;20201;-67
2021/04/05 09:44:55;;;;;;;6.03;4.87;;;9.40;99.90;;;;;;4958576;28;20247;-67
2021/04/05 09:47:36;;;;;;;8.53;5.43;;;9.30;99.90;;;;;;4963139;28;20192;-68
2021/04/05 09:50:15;;;;;;;7.70;5.50;;;9.40;99.90;;;;;;4957635;28;20779;-68
2021/04/05 09:53:11;;;;;;;7.30;5.00;;;9.30;99.90;;;;;;4937728;28;20574;-67
2021/04/05 09:55:42;;;;;;;7.30;5.27;;;9.30;99.90;;;;;;4872012;29;20226;-68
2021/04/05 09:58:16;;;;;;;7.37;5.20;;;9.40;99.90;;;;;;4873852;29;20220;-69
2021/04/05 10:00:49;;;;;;;6.57;5.00;;;9.30;99.90;;;;;;4898390;29;20603;-69
2021/04/05 10:03:18;;;;;;;7.40;5.30;;;9.30;99.90;;;;;;4896162;29;20343;-69
2021/04/05 10:05:48;;;;;;;8.10;5.40;;;9.20;99.90;;;;;;4883158;29;20230;-68
2021/04/05 10:08:21;;;;;;;7.73;4.23;;;9.20;99.90;;;;;;4886127;29;20290;-69
2021/04/05 10:10:48;;;;;;;6.67;4.07;;;9.20;99.90;;;;;;4899116;29;20227;-69
2021/04/05 10:13:16;;;;;;;7.70;4.83;;;9.20;99.90;;;;;;4890368;29;20215;-70
2021/04/05 10:15:44;;;;;;;5.43;4.23;;;9.30;99.90;;;;;;4889593;29;20769;-68
2021/04/05 10:18:13;;;;;;;7.13;4.87;;;9.30;99.90;;;;;;4897451;29;20496;-68
2021/04/05 10:20:41;;;;;;;8.47;4.80;;;9.30;99.90;;;;;;4898183;29;20774;-68
2021/04/05 10:23:10;;;;;;;7.10;4.40;;;9.30;99.90;;;;;;4891313;29;20219;-71
2021/04/05 10:25:38;;;;;;;6.07;4.40;;;9.40;99.90;;;;;;4889725;29;20222;-69
2021/04/05 10:28:08;;;;;;;5.33;4.30;;;9.40;99.90;;;;;;4873812;29;20206;-69
2021/04/05 10:30:38;;;;;;;5.23;4.17;;;9.50;99.90;;;;;;4874627;29;20212;-71
2021/04/05 10:33:07;;;;;;;6.20;4.70;;;9.60;99.90;;;;;;4921682;28;20227;-70
2021/04/05 10:35:38;;;;;;;5.97;4.43;;;9.60;99.90;;;;;;4951055;28;20286;-69
2021/04/05 10:38:05;;;;;;;6.37;4.50;;;9.60;99.90;;;;;;4948575;28;20202;-69
2021/04/05 10:40:34;;;;;;;5.93;4.03;;;9.60;99.90;;;;;;4947918;28;20199;-70
2021/04/05 10:43:09;;;;;;;5.17;4.13;;;9.50;99.90;;;;;;4962103;28;20200;-69
2021/04/05 10:45:39;;;;;;;6.07;4.80;;;9.50;99.90;;;;;;4947314;28;20190;-69
2021/04/05 10:48:09;;;;;;;8.77;4.60;;;9.50;99.90;;;;;;4948562;28;20195;-70
2021/04/05 10:50:41;;;;;;;4.33;3.90;;;9.50;99.90;;;;;;4941211;28;20216;-69
2021/04/05 10:53:12;;;;;;;5.97;4.30;;;9.50;99.90;;;;;;4945954;28;20197;-68
2021/04/05 10:55:45;;;;;;;6.97;4.40;;;9.50;99.90;;;;;;4952653;28;20256;-70
2021/04/05 10:58:17;;;;;;;7.37;4.60;;;9.60;99.90;;;;;;4951296;28;20204;-68
2021/04/05 11:00:50;;;;;;;5.57;4.30;;;9.50;99.90;;;;;;4957956;28;20203;-70
2021/04/05 11:03:20;;;;;;;6.27;4.10;;;9.60;99.90;;;;;;4960785;28;20205;-68
2021/04/05 11:05:50;;;;;;;4.03;3.63;;;9.60;99.90;;;;;;4943157;28;20214;-69
2021/04/05 11:08:21;;;;;;;5.40;3.70;;;9.70;99.90;;;;;;4965815;28;20201;-69
2021/04/05 11:10:49;;;;;;;5.40;3.70;;;9.70;99.90;;;;;;4948589;28;20202;-69
2021/04/05 11:13:22;;;;;;;4.93;3.80;;;9.60;99.90;;;;;;4964178;28;20214;-68
2021/04/05 11:15:49;;;;;;;4.17;3.43;;;9.60;99.90;;;;;;4953487;28;20316;-69
2021/04/05 11:18:19;;;;;;;4.93;3.87;;;9.50;99.90;;;;;;4966330;28;20328;-69
2021/04/05 11:20:49;;;;;;;5.63;3.87;;;9.50;99.90;;;;;;4943301;28;20232;-70
2021/04/05 11:23:17;;;;;;;4.40;3.63;;;9.50;99.90;;;;;;4950110;28;20196;-70
2021/04/05 11:25:46;;;;;;;6.37;3.80;;;9.40;99.90;;;;;;4951978;28;20223;-69
2021/04/05 11:28:19;;;;;;;4.13;3.73;;;9.40;99.90;;;;;;4947420;28;20207;-71
2021/04/05 11:30:49;;;;;;;5.57;3.70;;;9.40;99.90;;;;;;4950052;28;20315;-71
2021/04/05 11:33:23;;;;;;;5.17;3.87;;;9.40;99.90;;;;;;4952423;28;20232;-70
2021/04/05 11:35:53;;;;;;;4.23;3.83;;;9.40;99.90;;;;;;4944462;28;20260;-68
2021/04/05 11:38:21;;;;;;;5.50;3.47;;;9.50;99.90;;;;;;4946404;29;20248;-69
2021/04/05 11:40:50;;;;;;;3.30;3.00;;;9.50;99.90;;;;;;4952724;28;20201;-71
2021/04/05 11:43:19;;;;;;;6.63;4.20;;;9.50;99.90;;;;;;4948217;28;20286;-70
2021/04/05 11:45:52;;;;;;;6.27;3.77;;;9.40;99.90;;;;;;4964917;28;20204;-71
2021/04/05 11:48:21;;;;;;;4.40;3.60;;;9.40;99.90;;;;;;4950533;28;20195;-71
2021/04/05 11:50:48;;;;;;;3.67;3.37;;;9.30;99.90;;;;;;4942127;28;20205;-70
2021/04/05 11:53:23;;;;;;;3.57;3.10;;;9.30;99.90;;;;;;4951704;28;20807;-71
2021/04/05 11:56:00;;;;;;;3.33;3.03;;;9.30;99.90;;;;;;4943745;28;20210;-70
2021/04/05 11:58:31;;;;;;;3.73;3.13;;;9.30;99.90;;;;;;4959593;28;20291;-71
2021/04/05 12:01:02;;;;;;;3.63;2.73;;;9.30;99.90;;;;;;4959156;28;20204;-71
2021/04/05 12:03:33;;;;;;;2.30;2.10;;;9.20;99.90;;;;;;4942259;28;20231;-71
2021/04/05 12:06:07;;;;;;;1.53;1.43;;;9.10;99.90;;;;;;4938039;28;20203;-71
2021/04/05 12:08:40;;;;;;;1.47;1.30;;;9.10;99.90;;;;;;4948458;28;20227;-71
2021/04/05 12:11:08;;;;;;;1.00;1.00;;;9.00;99.90;;;;;;4941618;28;20748;-71
2021/04/05 12:13:41;;;;;;;1.27;1.17;;;9.00;99.90;;;;;;4946512;28;20215;-71
2021/04/05 12:16:10;;;;;;;1.10;1.00;;;8.90;99.90;;;;;;4946498;28;20206;-70
2021/04/05 12:18:37;;;;;;;1.60;1.30;;;8.80;99.90;;;;;;4951919;28;20206;-72
2021/04/05 12:21:06;;;;;;;1.77;1.50;;;8.80;99.90;;;;;;4951100;28;20204;-71
2021/04/05 12:23:33;;;;;;;1.57;1.47;;;8.80;99.90;;;;;;4939063;28;20253;-70
2021/04/05 12:26:00;;;;;;;1.53;1.43;;;8.70;99.90;;;;;;4952520;28;20217;-71
2021/04/05 12:28:36;;;;;;;2.03;1.70;;;8.70;99.90;;;;;;4946323;28;20215;-73
2021/04/05 12:31:05;;;;;;;2.00;1.50;;;8.70;99.90;;;;;;4950472;28;20227;-71
2021/04/05 12:33:35;;;;;;;1.73;1.57;;;8.70;99.90;;;;;;4940405;28;20676;-72
2021/04/05 12:36:03;;;;;;;3.43;2.10;;;8.70;99.90;;;;;;4938156;28;20287;-71
2021/04/05 12:38:32;;;;;;;2.00;1.77;;;8.80;99.90;;;;;;4954687;28;20222;-72
2021/04/05 12:41:01;;;;;;;2.00;1.80;;;8.90;99.90;;;;;;4947393;28;20215;-70
2021/04/05 12:43:30;;;;;;;2.13;1.80;;;9.10;99.90;;;;;;4948654;28;20211;-71
2021/04/05 12:45:58;;;;;;;2.17;1.87;;;9.10;99.90;;;;;;4949780;28;20208;-71
2021/04/05 12:48:28;;;;;;;3.50;1.80;;;9.10;99.90;;;;;;4944884;28;20193;-71
2021/04/05 12:50:58;;;;;;;3.70;1.87;;;9.10;99.90;;;;;;4953900;28;20211;-72
2021/04/05 12:53:27;;;;;;;2.23;1.77;;;9.10;99.90;;;;;;4938376;28;20238;-71
2021/04/05 12:55:56;;;;;;;2.00;1.80;;;9.10;99.90;;;;;;4941336;28;20193;-70
2021/04/05 12:58:27;;;;;;;2.67;1.23;;;8.90;99.90;;;;;;4948047;28;20615;-71
2021/04/05 13:00:54;;;;;;;5.77;2.17;;;8.60;99.90;;;;;;4937332;28;20250;-71
2021/04/05 13:03:24;;;;;;;34.27;6.03;;;8.30;99.90;;;;;;4952126;28;20205;-71
2021/04/05 13:05:59;;;;;;;8.77;2.20;;;8.10;99.90;;;;;;4935082;28;20232;-71
2021/04/05 13:08:31;;;;;;;1.60;1.00;;;7.90;99.90;;;;;;4953471;28;20723;-71
2021/04/05 13:11:03;;;;;;;0.97;0.70;;;7.80;99.90;;;;;;4961074;28;20209;-72
2021/04/05 13:13:36;;;;;;;1.57;0.90;;;7.60;99.90;;;;;;4957709;28;20205;-72
2021/04/05 13:16:19;;;;;;;1.10;0.80;;;7.40;99.90;;;;;;4964852;28;20735;-72
2021/04/05 13:18:50;;;;;;;2.47;0.80;;;7.30;99.90;;;;;;4953626;28;20201;-72
2021/04/05 13:21:19;;;;;;;1.47;0.80;;;7.10;99.90;;;;;;4955023;28;20193;-71
2021/04/05 13:23:51;;;;;;;1.63;0.80;;;6.90;99.90;;;;;;4942493;28;20201;-71